»·PEaware :: N3955 KBFL-KVCV

N3955 :: KBFL-KVCV

FLIGHT INFORMATION

Flight Status: Arrived
Operator: Privately registered:
United States
More flights under this callsign
Pilot: Ross W. (20449)
Aircraft: BRITISH AERO HAWK T45 GOSHAWK
(HAWK)
More flights by this aircraft type
Origin: KBFL Meadows
United States
Destination: KVCV Socal Logistics
United States
More flights between these airports :: More routes between these airports
Route: +MEADO3 PMD
File this flight plan on PilotEdge
Remarks:
Altitude:
(Current/Filed)
14,000ft
Speed:
(Current/Filed)
400kts
Departed: 09-Oct-18 12:22 PM
Arrived: 09-Oct-18 12:54 PM
Distance/Time
Traveled:
97nm/0:32
Distance/Time
To Go:
Arrived

Flight Plot

Page will automatically refresh every two minutes.

Flight plan parsing failed; only flown route is shown


Map Options




Map Legend


Flown Route
Filed Route
Departure Airport
Arrival Airport
Navaid (VOR, NDB)
Fix

Horizontal Profiles

Position Reports

Time Latitude Longitude Heading Altitude Ground
Speed
09-Oct-18 12:00 35.435186 -119.053375 301 501ft 0kts
09-Oct-18 12:01 35.435186 -119.053375 301 501ft 0kts
09-Oct-18 12:02 35.435186 -119.053375 301 501ft 0kts
09-Oct-18 12:03 35.435186 -119.053375 301 501ft 0kts
09-Oct-18 12:04 35.435186 -119.053375 301 501ft 0kts
09-Oct-18 12:05 35.435186 -119.053375 301 501ft 0kts
09-Oct-18 12:06 35.435186 -119.053375 301 501ft 0kts
09-Oct-18 12:07 35.435186 -119.053375 301 501ft 0kts
09-Oct-18 12:08 35.435186 -119.053375 301 501ft 0kts
09-Oct-18 12:09 35.435186 -119.053375 301 501ft 0kts
09-Oct-18 12:10 35.435186 -119.053375 301 501ft 0kts
09-Oct-18 12:11 35.435186 -119.053375 301 501ft 0kts
09-Oct-18 12:12 35.435186 -119.053375 301 501ft 0kts
09-Oct-18 12:13 35.435186 -119.053375 301 501ft 0kts
09-Oct-18 12:14 35.435186 -119.053375 301 501ft 0kts
09-Oct-18 12:15 35.435186 -119.053375 301 501ft 0kts
09-Oct-18 12:16 35.435186 -119.053375 301 501ft 0kts
09-Oct-18 12:17 35.435186 -119.053375 301 501ft 0kts
09-Oct-18 12:18 35.435222 -119.053469 292 501ft 0kts
09-Oct-18 12:19 35.433537 -119.053656 138 493ft 16kts
09-Oct-18 12:20 35.428530 -119.047566 135 489ft 35kts
09-Oct-18 12:21 35.425708 -119.044786 224 481ft 0kts
09-Oct-18 12:22 35.425708 -119.044786 224 481ft 0kts
09-Oct-18 12:23 35.425583 -119.046196 309 477ft 0kts
09-Oct-18 12:24 35.438631 -119.061757 316 1049ft 141kts
09-Oct-18 12:25 35.468619 -119.098823 315 3640ft 156kts
09-Oct-18 12:26 35.501248 -119.135980 316 6180ft 164kts
09-Oct-18 12:27 35.501410 -119.176208 169 8407ft 183kts
09-Oct-18 12:28 35.463825 -119.132823 131 10503ft 189kts
09-Oct-18 12:29 35.427563 -119.084044 134 12429ft 199kts
09-Oct-18 12:30 35.382164 -119.032237 131 13161ft 272kts
09-Oct-18 12:31 35.325098 -118.950197 127 13499ft 356kts
09-Oct-18 12:32 35.258988 -118.850694 130 13974ft 395kts
09-Oct-18 12:33 35.185354 -118.743723 130 14004ft 424kts
09-Oct-18 12:34 35.109582 -118.633427 130 14054ft 431kts
09-Oct-18 12:35 35.031298 -118.522951 135 14079ft 435kts
09-Oct-18 12:36 34.944261 -118.420440 135 14058ft 440kts
09-Oct-18 12:37 34.857910 -118.320088 136 14025ft 443kts
09-Oct-18 12:38 34.768647 -118.216713 136 14023ft 444kts
09-Oct-18 12:39 34.697760 -118.098080 117 14030ft 409kts
09-Oct-18 12:40 34.650151 -117.986007 115 12643ft 352kts
09-Oct-18 12:41 34.616876 -117.896489 111 10915ft 236kts
09-Oct-18 12:42 34.605090 -117.826770 92 8816ft 203kts
09-Oct-18 12:43 34.587038 -117.766606 130 6752ft 172kts
09-Oct-18 12:44 34.554614 -117.733196 167 5310ft 146kts
09-Oct-18 12:45 34.523300 -117.714011 122 4822ft 126kts
09-Oct-18 12:46 34.508202 -117.668796 108 4831ft 154kts
09-Oct-18 12:47 34.496377 -117.618445 102 5313ft 155kts
09-Oct-18 12:48 34.494151 -117.568611 57 5511ft 156kts
09-Oct-18 12:49 34.522323 -117.527424 49 5615ft 164kts
09-Oct-18 12:50 34.555600 -117.482862 51 5224ft 182kts
09-Oct-18 12:51 34.580569 -117.433047 78 3964ft 157kts
09-Oct-18 12:52 34.606806 -117.402271 358 3939ft 175kts
09-Oct-18 12:53 34.653661 -117.401695 1 3774ft 159kts
09-Oct-18 12:54 34.647309 -117.386656 188 3119ft 157kts
09-Oct-18 12:55 34.609538 -117.386711 179 2830ft 46kts
09-Oct-18 12:56 34.598817 -117.386556 177 2848ft 35kts
09-Oct-18 12:57 34.594884 -117.385353 89 2856ft 0kts
09-Oct-18 12:58 34.594884 -117.385353 89 2856ft 0kts
09-Oct-18 12:59 34.594887 -117.385049 88 2856ft 6kts
09-Oct-18 13:00 34.592243 -117.380781 134 2862ft 26kts
09-Oct-18 13:01 34.591006 -117.379259 134 2867ft 4kts
09-Oct-18 13:02 34.588451 -117.375911 133 2871ft 13kts
09-Oct-18 13:03 34.588019 -117.375398 316 2870ft 0kts
09-Oct-18 13:04 34.588019 -117.375398 316 2870ft 0kts
09-Oct-18 13:05 34.588019 -117.375398 316 2870ft 0kts
09-Oct-18 13:06 34.588019 -117.375398 316 2870ft 0kts
09-Oct-18 13:07 34.588019 -117.375398 316 2870ft 0kts

Navigation Log

Ident Type
Flight plan parsing failed, navigation log unavailable